Time;durP1;ratioP1;P1;durP2;ratioP2;P2;SDS_P1;SDS_P2;PMS_P1;PMS_P2;Temp;Humidity;BMP_temperature;BMP_pressure;BME280_temperature;BME280_humidity;BME280_pressure;Samples;Min_cycle;Max_cycle;Signal;HPM_P1;HPM_P2
2022/10/01 00:01:14;;;;;;;0.38;0.38;;;12.10;99.90;;;;;;5020814;28;20575;-75
2022/10/01 00:03:40;;;;;;;3.92;1.27;;;12.20;99.90;;;;;;5034974;28;20053;-74
2022/10/01 00:06:08;;;;;;;0.22;0.22;;;12.20;99.90;;;;;;5025707;28;20044;-73
2022/10/01 00:08:34;;;;;;;1.75;0.80;;;12.10;99.90;;;;;;5035949;28;20489;-75
2022/10/01 00:11:00;;;;;;;0.17;0.17;;;12.10;99.90;;;;;;5024389;28;20069;-74
2022/10/01 00:13:28;;;;;;;0.20;0.20;;;12.10;99.90;;;;;;5027537;28;20049;-73
2022/10/01 00:15:54;;;;;;;0.10;0.10;;;12.10;99.90;;;;;;5031057;28;20056;-73
2022/10/01 00:18:19;;;;;;;0.50;0.50;;;12.10;99.90;;;;;;5022688;28;20037;-75
2022/10/01 00:20:45;;;;;;;0.10;0.10;;;12.10;99.90;;;;;;5040742;28;20397;-72
2022/10/01 00:23:11;;;;;;;0.32;0.32;;;12.00;99.90;;;;;;5028955;28;20041;-73
2022/10/01 00:25:38;;;;;;;2.28;0.82;;;12.00;99.90;;;;;;5029274;28;20064;-73
2022/10/01 00:28:04;;;;;;;0.20;0.20;;;12.00;99.90;;;;;;5026292;28;20567;-73
2022/10/01 00:30:29;;;;;;;0.22;0.22;;;12.00;99.90;;;;;;5027532;28;20049;-73
2022/10/01 00:32:55;;;;;;;0.30;0.30;;;12.00;99.90;;;;;;5024629;28;20092;-75
2022/10/01 00:35:22;;;;;;;0.32;0.32;;;12.00;99.90;;;;;;5039082;28;20053;-73
2022/10/01 00:37:51;;;;;;;0.20;0.20;;;12.00;99.90;;;;;;5028318;28;20037;-74
2022/10/01 00:40:19;;;;;;;0.10;0.10;;;12.00;99.90;;;;;;5036544;28;20512;-74
2022/10/01 00:42:45;;;;;;;0.50;0.38;;;11.90;99.90;;;;;;5033161;28;20042;-73
2022/10/01 00:45:14;;;;;;;0.13;0.13;;;12.00;99.90;;;;;;5015342;28;20107;-74
2022/10/01 00:47:53;;;;;;;0.88;0.80;;;12.00;99.90;;;;;;5037962;28;20053;-75
2022/10/01 00:50:32;;;;;;;0.70;0.57;;;12.00;99.90;;;;;;5021449;28;20488;-74
2022/10/01 00:53:01;;;;;;;0.10;0.10;;;12.00;99.90;;;;;;5029830;28;20060;-75
2022/10/01 00:55:29;;;;;;;0.52;0.52;;;12.00;99.90;;;;;;5030010;28;20050;-73
2022/10/01 00:57:55;;;;;;;0.10;0.10;;;12.00;99.90;;;;;;5036004;28;20051;-73
2022/10/01 01:00:22;;;;;;;0.30;0.30;;;12.00;99.90;;;;;;5033454;28;20037;-73
2022/10/01 01:02:48;;;;;;;0.10;0.10;;;11.90;99.90;;;;;;5017895;28;20053;-73
2022/10/01 01:05:14;;;;;;;0.63;0.57;;;11.90;99.90;;;;;;5019287;28;20560;-73
2022/10/01 01:07:46;;;;;;;0.10;0.10;;;11.90;99.90;;;;;;5027413;28;20049;-74
2022/10/01 01:10:15;;;;;;;0.15;0.15;;;11.80;99.90;;;;;;5019481;28;20049;-74
2022/10/01 01:13:09;;;;;;;2.33;0.93;;;11.90;99.90;;;;;;5015694;28;20049;-74
2022/10/01 01:15:38;;;;;;;0.10;0.10;;;11.80;99.90;;;;;;5020589;28;20053;-74
2022/10/01 01:18:11;;;;;;;0.50;0.50;;;11.80;99.90;;;;;;5025289;28;20402;-74
2022/10/01 01:20:53;;;;;;;0.35;0.35;;;11.90;99.90;;;;;;5016722;28;20048;-74
2022/10/01 01:23:26;;;;;;;0.20;0.20;;;11.80;99.90;;;;;;5018362;28;20119;-73
2022/10/01 01:26:27;;;;;;;0.10;0.10;;;11.90;99.90;;;;;;5026545;28;20548;-73
2022/10/01 01:28:59;;;;;;;0.30;0.30;;;11.80;99.90;;;;;;5024733;28;20390;-76
2022/10/01 01:31:35;;;;;;;0.10;0.10;;;11.90;99.90;;;;;;5023563;28;20056;-76
2022/10/01 01:34:03;;;;;;;0.00;0.00;;;11.80;99.90;;;;;;5022740;28;20485;-77
2022/10/01 01:36:34;;;;;;;0.22;0.22;;;11.80;99.90;;;;;;5025574;28;20046;-77
2022/10/01 01:39:04;;;;;;;0.10;0.10;;;11.80;99.90;;;;;;5022972;28;20515;-77
2022/10/01 01:41:34;;;;;;;0.35;0.35;;;11.80;99.90;;;;;;5028062;28;20133;-78
2022/10/01 01:44:02;;;;;;;0.15;0.15;;;11.80;99.90;;;;;;5026527;28;20485;-75
2022/10/01 01:46:34;;;;;;;0.10;0.10;;;11.80;99.90;;;;;;5019333;28;20045;-76
2022/10/01 01:49:03;;;;;;;0.03;0.03;;;11.80;99.90;;;;;;5027226;28;20405;-76
2022/10/01 01:51:47;;;;;;;0.10;0.10;;;11.80;99.90;;;;;;5018365;28;20034;-76
2022/10/01 01:54:12;;;;;;;0.10;0.10;;;11.80;99.90;;;;;;5019230;28;20056;-75
2022/10/01 01:56:38;;;;;;;0.10;0.10;;;11.80;99.90;;;;;;5016210;28;20037;-78
2022/10/01 01:59:04;;;;;;;0.20;0.20;;;11.80;99.90;;;;;;5022671;28;20456;-79
2022/10/01 02:01:36;;;;;;;0.20;0.20;;;11.80;99.90;;;;;;5024841;28;20417;-78
2022/10/01 02:04:05;;;;;;;0.10;0.10;;;11.80;99.90;;;;;;5028299;28;20053;-76
2022/10/01 02:06:56;;;;;;;0.40;0.40;;;11.90;99.90;;;;;;5026466;28;20034;-76
2022/10/01 02:09:38;;;;;;;0.10;0.10;;;11.80;99.90;;;;;;5025407;28;20160;-78
2022/10/01 02:12:34;;;;;;;0.10;0.10;;;11.80;99.90;;;;;;5024234;28;20052;-78
2022/10/01 02:15:16;;;;;;;0.00;0.00;;;11.80;99.90;;;;;;5028804;28;20055;-78
2022/10/01 02:18:01;;;;;;;0.10;0.10;;;11.80;99.90;;;;;;5030350;28;20056;-75
2022/10/01 02:20:34;;;;;;;0.10;0.10;;;11.90;99.90;;;;;;5027960;28;20538;-77
2022/10/01 02:23:08;;;;;;;0.10;0.10;;;11.90;99.90;;;;;;5019323;28;20060;-76
2022/10/01 02:25:39;;;;;;;0.10;0.10;;;11.90;99.90;;;;;;5024717;28;20044;-81
2022/10/01 02:28:11;;;;;;;0.10;0.10;;;11.90;99.90;;;;;;5029810;28;20528;-77
2022/10/01 02:30:38;;;;;;;0.20;0.20;;;11.90;99.90;;;;;;5019138;28;20042;-73
2022/10/01 02:33:06;;;;;;;0.10;0.10;;;11.90;99.90;;;;;;5022029;28;20095;-74
2022/10/01 02:35:34;;;;;;;0.10;0.10;;;11.90;99.90;;;;;;5023414;28;20045;-75
2022/10/01 02:38:03;;;;;;;0.10;0.10;;;11.90;99.90;;;;;;5033594;28;20103;-74
2022/10/01 02:40:31;;;;;;;0.10;0.10;;;11.90;99.90;;;;;;5027631;28;20132;-75
2022/10/01 02:43:02;;;;;;;0.00;0.00;;;12.00;99.90;;;;;;5022071;28;20091;-74
2022/10/01 02:45:32;;;;;;;0.10;0.10;;;12.00;99.90;;;;;;5025367;28;20041;-75
2022/10/01 02:48:08;;;;;;;0.10;0.10;;;12.00;99.90;;;;;;5025217;28;20056;-73
2022/10/01 02:50:55;;;;;;;0.00;0.00;;;12.00;99.90;;;;;;5028267;28;20072;-75
2022/10/01 02:53:29;;;;;;;0.10;0.10;;;12.00;99.90;;;;;;5022007;28;20045;-75
2022/10/01 02:55:57;;;;;;;0.10;0.10;;;12.00;99.90;;;;;;5024080;28;20588;-75
2022/10/01 02:58:22;;;;;;;0.10;0.10;;;12.10;99.90;;;;;;5023231;28;20071;-75
2022/10/01 03:00:48;;;;;;;0.32;0.32;;;12.10;99.90;;;;;;5026068;28;20045;-75
2022/10/01 03:03:14;;;;;;;0.10;0.10;;;12.10;99.90;;;;;;5031466;28;20048;-76
2022/10/01 03:05:40;;;;;;;0.10;0.10;;;12.10;99.90;;;;;;5027874;28;20576;-74
2022/10/01 03:08:05;;;;;;;0.10;0.10;;;12.10;99.90;;;;;;5029844;28;20037;-74
2022/10/01 03:10:31;;;;;;;0.15;0.15;;;12.10;99.90;;;;;;5037960;28;20053;-74
2022/10/01 03:12:59;;;;;;;0.10;0.10;;;12.10;99.90;;;;;;5030287;28;20048;-74
2022/10/01 03:15:24;;;;;;;0.00;0.00;;;12.10;99.90;;;;;;5036504;28;20049;-77
2022/10/01 03:17:53;;;;;;;0.28;0.28;;;12.10;99.90;;;;;;5025805;28;20056;-76
2022/10/01 03:20:19;;;;;;;0.10;0.10;;;12.20;99.90;;;;;;5029115;28;20149;-76
2022/10/01 03:22:46;;;;;;;0.08;0.08;;;12.20;99.90;;;;;;5040204;28;20136;-75
2022/10/01 03:25:15;;;;;;;0.00;0.00;;;12.20;99.90;;;;;;5021273;28;20478;-73
2022/10/01 03:27:41;;;;;;;0.00;0.00;;;12.20;99.90;;;;;;5022573;28;20096;-74
2022/10/01 03:30:13;;;;;;;0.10;0.10;;;12.20;99.90;;;;;;5040325;28;20084;-74
2022/10/01 03:32:39;;;;;;;0.10;0.10;;;12.20;99.90;;;;;;5028981;28;20091;-73
2022/10/01 03:35:05;;;;;;;0.00;0.00;;;12.20;99.90;;;;;;5031942;28;20049;-74
2022/10/01 03:37:30;;;;;;;0.85;0.63;;;12.20;99.90;;;;;;5022900;28;20124;-74
2022/10/01 03:39:56;;;;;;;0.10;0.10;;;12.30;99.90;;;;;;5024467;28;20117;-74
2022/10/01 03:42:21;;;;;;;1.13;1.08;;;12.30;99.90;;;;;;5019794;28;20042;-72
2022/10/01 03:44:47;;;;;;;0.10;0.10;;;12.30;99.90;;;;;;5044542;28;20049;-74
2022/10/01 03:47:13;;;;;;;0.20;0.20;;;12.30;99.90;;;;;;5034839;28;20045;-73
2022/10/01 03:49:38;;;;;;;0.10;0.10;;;12.20;99.90;;;;;;5026026;28;20046;-72
2022/10/01 03:52:05;;;;;;;0.65;0.38;;;12.30;99.90;;;;;;5025683;28;20041;-73
2022/10/01 03:54:31;;;;;;;0.10;0.10;;;12.30;99.90;;;;;;5025183;28;20543;-74
2022/10/01 03:56:57;;;;;;;0.13;0.13;;;12.30;99.90;;;;;;5030396;28;20033;-74
2022/10/01 03:59:23;;;;;;;0.10;0.10;;;12.40;99.90;;;;;;5029362;28;20087;-73
2022/10/01 04:01:49;;;;;;;0.10;0.10;;;12.40;99.90;;;;;;5027053;28;20057;-73
2022/10/01 04:04:15;;;;;;;0.10;0.10;;;12.40;99.90;;;;;;5031568;28;20057;-73
2022/10/01 04:06:40;;;;;;;0.20;0.20;;;12.40;99.90;;;;;;5024376;28;20084;-74
2022/10/01 04:09:08;;;;;;;0.10;0.10;;;12.40;99.90;;;;;;5023960;28;20037;-73
2022/10/01 04:11:34;;;;;;;0.10;0.10;;;12.50;99.90;;;;;;5033485;28;20073;-74
2022/10/01 04:14:00;;;;;;;0.10;0.10;;;12.50;99.90;;;;;;5028997;28;20106;-74
2022/10/01 04:16:26;;;;;;;0.10;0.10;;;12.50;99.90;;;;;;5023832;28;20501;-74
2022/10/01 04:18:51;;;;;;;0.10;0.10;;;12.50;99.90;;;;;;5025233;28;20037;-74
2022/10/01 04:21:17;;;;;;;0.10;0.10;;;12.60;99.90;;;;;;5022047;28;20068;-74
2022/10/01 04:23:42;;;;;;;0.10;0.10;;;12.60;99.90;;;;;;5032477;28;20454;-74
2022/10/01 04:26:08;;;;;;;0.08;0.08;;;12.60;99.90;;;;;;5033615;28;20072;-74
2022/10/01 04:28:34;;;;;;;0.10;0.10;;;12.60;99.90;;;;;;5031219;28;20053;-74
2022/10/01 04:33:44;;;;;;;0.08;0.08;;;12.60;99.90;;;;;;5036683;28;20053;-74
2022/10/01 04:36:09;;;;;;;0.10;0.10;;;12.70;99.90;;;;;;5026688;28;20044;-75
2022/10/01 04:38:35;;;;;;;0.08;0.08;;;12.70;99.90;;;;;;5026664;28;20034;-75
2022/10/01 04:41:01;;;;;;;0.17;0.17;;;12.70;99.90;;;;;;5024995;28;20038;-75
2022/10/01 04:43:26;;;;;;;0.10;0.10;;;12.70;99.90;;;;;;5028703;28;20049;-75
2022/10/01 04:45:52;;;;;;;0.10;0.10;;;12.70;99.90;;;;;;5028166;28;20049;-76
2022/10/01 04:48:17;;;;;;;0.10;0.10;;;12.70;99.90;;;;;;5032276;28;20029;-76
2022/10/01 04:50:44;;;;;;;0.10;0.10;;;12.70;99.90;;;;;;5031842;28;20107;-75
2022/10/01 04:53:09;;;;;;;0.00;0.00;;;12.70;99.90;;;;;;5038695;28;20489;-75
2022/10/01 04:55:35;;;;;;;0.10;0.10;;;12.70;99.90;;;;;;5036074;28;20095;-76
2022/10/01 04:58:01;;;;;;;0.20;0.20;;;12.70;99.90;;;;;;5027023;28;20037;-76
2022/10/01 05:00:27;;;;;;;0.00;0.00;;;12.70;99.90;;;;;;5026616;28;20083;-76
2022/10/01 05:02:53;;;;;;;0.10;0.10;;;12.70;99.90;;;;;;5020143;28;20106;-76
2022/10/01 05:05:21;;;;;;;0.10;0.10;;;12.70;99.90;;;;;;5033678;28;20140;-76
2022/10/01 05:07:47;;;;;;;0.25;0.25;;;12.70;99.90;;;;;;5025787;28;20040;-75
2022/10/01 05:10:19;;;;;;;0.00;0.00;;;12.70;99.90;;;;;;5035904;28;20056;-75
2022/10/01 05:12:46;;;;;;;0.00;0.00;;;12.70;99.90;;;;;;5026504;28;20048;-75
2022/10/01 05:15:12;;;;;;;0.10;0.10;;;12.70;99.90;;;;;;5029041;28;20041;-75
2022/10/01 05:17:38;;;;;;;0.20;0.20;;;12.70;99.90;;;;;;5029834;28;20045;-76
2022/10/01 05:20:05;;;;;;;0.08;0.08;;;12.70;99.90;;;;;;5028146;28;20099;-75
2022/10/01 05:22:31;;;;;;;0.00;0.00;;;12.70;99.90;;;;;;5017773;28;20048;-75
2022/10/01 05:25:01;;;;;;;0.10;0.10;;;12.70;99.90;;;;;;5041235;28;20061;-74
2022/10/01 05:27:27;;;;;;;0.10;0.10;;;12.70;99.90;;;;;;5034170;28;20497;-75
2022/10/01 05:29:52;;;;;;;0.13;0.13;;;12.70;99.90;;;;;;5030419;28;20534;-74
2022/10/01 05:32:18;;;;;;;0.30;0.30;;;12.80;99.90;;;;;;5021015;28;20550;-74
2022/10/01 05:34:44;;;;;;;0.10;0.10;;;12.80;99.90;;;;;;5037952;28;20049;-75
2022/10/01 05:37:10;;;;;;;0.10;0.10;;;12.70;99.90;;;;;;5032342;28;20065;-74
2022/10/01 05:39:36;;;;;;;0.10;0.10;;;12.70;99.90;;;;;;5029874;28;20049;-75
2022/10/01 05:42:02;;;;;;;0.65;0.65;;;12.70;99.90;;;;;;5022898;28;20086;-76
2022/10/01 05:44:28;;;;;;;0.10;0.10;;;12.80;99.90;;;;;;5026314;28;20119;-76
2022/10/01 05:46:54;;;;;;;0.10;0.10;;;12.80;99.90;;;;;;5020421;28;20052;-76
2022/10/01 05:49:23;;;;;;;0.32;0.32;;;12.80;99.90;;;;;;5019001;28;20049;-76
2022/10/01 05:51:49;;;;;;;0.20;0.20;;;12.80;99.90;;;;;;5033757;28;20046;-76
2022/10/01 05:54:18;;;;;;;0.00;0.00;;;12.80;99.90;;;;;;5030426;28;20048;-74
2022/10/01 05:56:44;;;;;;;0.10;0.10;;;12.80;99.90;;;;;;5026927;28;20049;-74
2022/10/01 05:59:10;;;;;;;0.00;0.00;;;12.90;99.90;;;;;;5029545;28;20385;-74
2022/10/01 06:01:36;;;;;;;0.00;0.00;;;12.80;99.90;;;;;;5026979;28;20054;-76
2022/10/01 06:04:02;;;;;;;0.20;0.20;;;12.80;99.90;;;;;;5035785;28;20056;-76
2022/10/01 06:06:28;;;;;;;0.22;0.22;;;12.80;99.90;;;;;;5023654;28;20092;-76
2022/10/01 06:08:53;;;;;;;0.30;0.30;;;12.80;99.90;;;;;;5024389;28;20506;-76
2022/10/01 06:11:21;;;;;;;0.10;0.10;;;12.90;99.90;;;;;;5025568;28;20103;-76
2022/10/01 06:13:47;;;;;;;0.22;0.22;;;12.90;99.90;;;;;;5026642;28;20068;-76
2022/10/01 06:16:14;;;;;;;0.00;0.00;;;12.90;99.90;;;;;;5042480;28;20369;-76
2022/10/01 06:18:40;;;;;;;0.00;0.00;;;12.90;99.90;;;;;;5032631;28;20044;-76
2022/10/01 06:21:07;;;;;;;0.00;0.00;;;12.90;99.90;;;;;;5028259;28;20459;-76
2022/10/01 06:23:34;;;;;;;0.50;0.50;;;12.90;99.90;;;;;;5028425;28;20041;-75
2022/10/01 06:26:02;;;;;;;0.10;0.10;;;12.90;99.90;;;;;;5022848;28;20045;-75
2022/10/01 06:28:28;;;;;;;0.10;0.10;;;12.90;99.90;;;;;;5023637;28;20060;-75
2022/10/01 06:30:53;;;;;;;0.10;0.10;;;12.90;99.90;;;;;;5031572;28;20049;-75
2022/10/01 06:33:19;;;;;;;0.05;0.05;;;12.90;99.90;;;;;;5026402;28;20053;-75
2022/10/01 06:35:50;;;;;;;0.10;0.10;;;12.90;99.90;;;;;;5020888;28;20478;-76
2022/10/01 06:38:21;;;;;;;0.10;0.10;;;12.90;99.90;;;;;;5037435;28;20087;-75
2022/10/01 06:40:54;;;;;;;0.47;0.47;;;12.90;99.90;;;;;;5021903;28;20050;-76
2022/10/01 06:43:20;;;;;;;0.10;0.10;;;13.00;99.90;;;;;;5059822;28;20045;-76
2022/10/01 06:45:46;;;;;;;0.10;0.10;;;12.90;99.90;;;;;;5033146;28;20077;-76
2022/10/01 06:48:14;;;;;;;0.00;0.00;;;12.90;99.90;;;;;;5029792;28;20103;-76
2022/10/01 06:50:41;;;;;;;0.00;0.00;;;13.00;99.90;;;;;;5023741;28;20042;-76
2022/10/01 06:53:07;;;;;;;0.75;0.75;;;12.90;99.90;;;;;;5021369;28;20038;-76
2022/10/01 06:55:34;;;;;;;0.00;0.00;;;12.90;99.90;;;;;;5022750;28;20103;-76
2022/10/01 06:58:11;;;;;;;0.10;0.10;;;12.90;99.90;;;;;;5016444;28;20045;-76
2022/10/01 07:00:37;;;;;;;0.20;0.20;;;12.90;99.90;;;;;;5036918;28;20511;-75
2022/10/01 07:03:07;;;;;;;2.47;1.20;;;12.90;99.90;;;;;;5022216;28;20430;-75
2022/10/01 07:05:33;;;;;;;0.10;0.10;;;12.90;99.90;;;;;;5022205;28;20053;-76
2022/10/01 07:07:59;;;;;;;0.10;0.10;;;13.00;99.90;;;;;;5030046;28;20421;-76
2022/10/01 07:10:24;;;;;;;0.00;0.00;;;13.00;99.90;;;;;;5030484;28;20479;-76
2022/10/01 07:12:50;;;;;;;0.10;0.10;;;13.10;99.90;;;;;;5035436;28;20042;-76
2022/10/01 07:15:18;;;;;;;0.03;0.03;;;13.10;99.90;;;;;;5021673;28;20053;-76
2022/10/01 07:17:47;;;;;;;0.08;0.08;;;13.10;99.90;;;;;;5022137;28;20033;-75
2022/10/01 07:20:13;;;;;;;0.10;0.10;;;13.20;99.90;;;;;;5029684;28;20045;-76
2022/10/01 07:22:39;;;;;;;0.10;0.10;;;13.30;99.90;;;;;;5028264;28;20049;-75
2022/10/01 07:25:06;;;;;;;0.10;0.10;;;13.30;99.90;;;;;;5024551;28;20125;-75
2022/10/01 07:27:31;;;;;;;0.20;0.20;;;13.30;99.90;;;;;;5027187;28;20107;-75
2022/10/01 07:29:57;;;;;;;0.10;0.10;;;13.40;99.90;;;;;;5026660;28;20050;-75
2022/10/01 07:32:24;;;;;;;0.10;0.10;;;13.40;99.90;;;;;;5027774;28;20046;-75
2022/10/01 07:34:49;;;;;;;0.40;0.40;;;13.40;99.90;;;;;;5027280;28;20448;-76
2022/10/01 07:37:15;;;;;;;0.47;0.47;;;13.50;99.90;;;;;;5017286;28;20196;-75
2022/10/01 07:39:40;;;;;;;0.00;0.00;;;13.50;99.90;;;;;;5024455;28;20128;-76
2022/10/01 07:42:06;;;;;;;0.20;0.20;;;13.60;99.90;;;;;;5028897;28;20053;-75
2022/10/01 07:44:32;;;;;;;0.90;0.85;;;13.70;99.90;;;;;;5041562;28;20109;-76
2022/10/01 07:46:58;;;;;;;0.20;0.20;;;13.80;99.90;;;;;;5027942;28;20485;-76
2022/10/01 07:49:24;;;;;;;1.90;0.63;;;14.00;99.90;;;;;;5045393;28;20045;-76
2022/10/01 07:51:52;;;;;;;0.10;0.10;;;14.10;99.90;;;;;;5042406;28;20056;-76
2022/10/01 07:54:19;;;;;;;0.30;0.30;;;14.20;99.90;;;;;;5028740;28;20054;-76
2022/10/01 07:56:44;;;;;;;0.40;0.40;;;14.30;99.90;;;;;;5023934;28;20091;-76
2022/10/01 07:59:10;;;;;;;0.00;0.00;;;14.30;99.90;;;;;;5030517;28;20053;-76
2022/10/01 08:01:36;;;;;;;0.38;0.38;;;14.40;99.90;;;;;;5030440;28;20057;-76
2022/10/01 08:05:16;;;;;;;0.00;0.00;;;14.40;99.90;;;;;;5030124;28;20057;-75
2022/10/01 08:06:50;;;;;;;0.10;0.10;;;14.40;99.90;;;;;;5027592;28;20073;-75
2022/10/01 08:09:17;;;;;;;0.70;0.70;;;14.40;99.90;;;;;;5022637;28;20544;-75
2022/10/01 08:11:44;;;;;;;1.35;0.57;;;14.30;99.90;;;;;;5034497;28;20128;-74
2022/10/01 08:14:10;;;;;;;0.10;0.10;;;14.30;99.90;;;;;;5041964;28;20136;-74
2022/10/01 08:16:38;;;;;;;0.20;0.20;;;14.20;99.90;;;;;;5024253;28;20045;-74
2022/10/01 08:19:05;;;;;;;0.10;0.10;;;14.20;99.90;;;;;;5038719;28;20486;-75
2022/10/01 08:21:31;;;;;;;0.10;0.10;;;14.10;99.90;;;;;;5012467;28;20053;-74
2022/10/01 08:23:57;;;;;;;0.38;0.38;;;14.00;99.90;;;;;;5021496;28;20060;-74
2022/10/01 08:26:22;;;;;;;0.10;0.10;;;14.00;99.90;;;;;;5029967;28;20048;-74
2022/10/01 08:28:48;;;;;;;0.00;0.00;;;14.00;99.90;;;;;;5038547;28;20056;-74
2022/10/01 08:31:13;;;;;;;0.10;0.10;;;14.00;99.90;;;;;;5030705;28;20401;-74
2022/10/01 08:33:39;;;;;;;0.10;0.10;;;14.10;99.90;;;;;;5030455;28;20049;-74
2022/10/01 08:36:08;;;;;;;0.10;0.10;;;14.10;99.90;;;;;;5033919;28;20080;-74
2022/10/01 08:38:34;;;;;;;0.10;0.10;;;14.20;99.90;;;;;;5030074;28;20033;-75
2022/10/01 08:41:14;;;;;;;0.10;0.10;;;14.20;99.90;;;;;;5019678;28;20096;-75
2022/10/01 08:43:40;;;;;;;0.10;0.10;;;14.10;99.90;;;;;;5027694;28;20053;-75
2022/10/01 08:46:16;;;;;;;0.00;0.00;;;14.00;99.90;;;;;;5028985;28;20085;-75
2022/10/01 08:48:57;;;;;;;0.13;0.13;;;13.90;99.90;;;;;;5034589;28;20096;-76
2022/10/01 08:51:45;;;;;;;0.10;0.10;;;13.80;99.90;;;;;;5022065;28;20052;-76
2022/10/01 08:54:21;;;;;;;0.10;0.10;;;13.90;99.90;;;;;;5031939;28;20438;-76
2022/10/01 08:56:46;;;;;;;0.00;0.00;;;14.00;99.90;;;;;;5024211;28;20437;-76
2022/10/01 08:59:39;;;;;;;0.05;0.05;;;14.20;99.90;;;;;;5030697;28;20130;-76
2022/10/01 09:02:17;;;;;;;0.10;0.10;;;14.40;99.90;;;;;;5029667;28;20053;-74
2022/10/01 09:04:43;;;;;;;0.10;0.10;;;14.50;99.90;;;;;;5030517;28;20417;-74
2022/10/01 09:07:35;;;;;;;0.00;0.00;;;14.40;99.90;;;;;;5033064;28;20064;-75
2022/10/01 09:10:34;;;;;;;0.05;0.05;;;14.30;99.90;;;;;;5048633;28;20053;-75
2022/10/01 09:13:06;;;;;;;0.03;0.03;;;14.20;99.90;;;;;;5037439;28;20536;-75
2022/10/01 09:15:49;;;;;;;0.10;0.10;;;14.00;99.90;;;;;;5018958;28;20095;-75
2022/10/01 09:18:36;;;;;;;0.03;0.03;;;13.80;99.90;;;;;;5037786;28;20091;-75
2022/10/01 09:21:15;;;;;;;0.20;0.20;;;13.70;99.90;;;;;;5030284;28;20448;-75
2022/10/01 09:23:56;;;;;;;0.10;0.10;;;13.60;99.90;;;;;;5031934;28;20092;-75
2022/10/01 09:26:22;;;;;;;0.10;0.10;;;13.50;99.90;;;;;;5039086;28;20488;-75
2022/10/01 09:28:51;;;;;;;0.00;0.00;;;13.40;99.90;;;;;;5031835;28;20087;-75
2022/10/01 09:31:36;;;;;;;0.00;0.00;;;13.40;99.90;;;;;;5030122;28;20049;-75
2022/10/01 09:34:12;;;;;;;0.10;0.10;;;13.40;99.90;;;;;;5041984;28;20131;-75
2022/10/01 09:36:51;;;;;;;0.10;0.10;;;13.30;99.90;;;;;;5032236;28;20493;-75
2022/10/01 09:39:22;;;;;;;0.10;0.10;;;13.30;99.90;;;;;;5028797;28;20052;-75
2022/10/01 09:41:47;;;;;;;0.00;0.00;;;13.20;99.90;;;;;;5021532;28;20034;-75
2022/10/01 09:44:21;;;;;;;0.10;0.10;;;13.20;99.90;;;;;;5042234;28;20041;-75
2022/10/01 09:46:47;;;;;;;0.10;0.10;;;13.20;99.90;;;;;;5021132;28;20045;-77
2022/10/01 09:49:26;;;;;;;0.35;0.30;;;13.30;99.90;;;;;;5025118;28;20095;-78
2022/10/01 09:51:57;;;;;;;0.00;0.00;;;13.40;99.90;;;;;;5027830;28;20392;-75
2022/10/01 09:54:26;;;;;;;0.10;0.10;;;14.10;99.90;;;;;;5045006;28;20052;-75
2022/10/01 09:57:27;;;;;;;0.10;0.10;;;14.70;99.90;;;;;;5033471;28;20067;-75
2022/10/01 10:00:10;;;;;;;0.10;0.10;;;14.70;99.90;;;;;;5019723;28;20110;-75
2022/10/01 10:02:43;;;;;;;;;;;14.80;99.90;;;;;;5027511;28;20087;-75
2022/10/01 10:05:20;;;;;;;0.10;0.10;;;15.00;99.90;;;;;;5025523;28;19952;-75
2022/10/01 10:07:50;;;;;;;0.10;0.10;;;15.10;99.90;;;;;;5026239;28;20128;-76
2022/10/01 10:10:24;;;;;;;0.45;0.45;;;15.00;99.90;;;;;;5027550;28;20042;-76
2022/10/01 10:12:59;;;;;;;0.10;0.10;;;14.80;99.90;;;;;;5027521;28;20164;-76
2022/10/01 10:15:26;;;;;;;0.40;0.40;;;14.70;99.90;;;;;;5014150;28;20049;-76
2022/10/01 10:17:54;;;;;;;0.10;0.10;;;14.60;99.90;;;;;;5016628;28;20045;-76
2022/10/01 10:20:27;;;;;;;0.00;0.00;;;14.50;99.90;;;;;;5031801;28;20132;-75
2022/10/01 10:22:53;;;;;;;0.80;0.80;;;14.40;99.90;;;;;;5026631;28;20477;-75
2022/10/01 10:25:23;;;;;;;0.10;0.10;;;14.40;99.90;;;;;;5032167;28;20095;-75
2022/10/01 10:27:54;;;;;;;0.00;0.00;;;14.40;99.90;;;;;;5026339;28;20096;-73
2022/10/01 10:30:23;;;;;;;0.10;0.10;;;14.30;99.90;;;;;;5028267;28;20107;-74
2022/10/01 10:32:49;;;;;;;0.10;0.10;;;14.30;99.90;;;;;;5025915;28;20048;-70
2022/10/01 10:35:20;;;;;;;0.00;0.00;;;14.30;99.90;;;;;;5024569;28;20052;-70
2022/10/01 10:37:51;;;;;;;0.10;0.10;;;14.30;99.90;;;;;;5035997;28;20084;-75
2022/10/01 10:40:20;;;;;;;0.10;0.10;;;14.50;99.90;;;;;;5026414;28;20091;-75
2022/10/01 10:42:57;;;;;;;0.10;0.10;;;14.80;99.90;;;;;;5049627;28;20107;-75
2022/10/01 10:45:34;;;;;;;1.08;0.25;;;15.20;99.90;;;;;;5044204;28;20053;-76
2022/10/01 10:48:10;;;;;;;0.30;0.30;;;15.70;99.90;;;;;;5038598;28;20045;-76
2022/10/01 10:50:39;;;;;;;0.10;0.10;;;15.70;99.90;;;;;;5028540;28;20058;-77
2022/10/01 10:53:42;;;;;;;0.10;0.10;;;16.00;99.90;;;;;;5041505;28;20087;-77
2022/10/01 10:56:21;;;;;;;0.10;0.10;;;16.20;99.90;;;;;;5011843;28;20498;-76
2022/10/01 10:58:47;;;;;;;0.10;0.10;;;16.20;99.90;;;;;;5013026;28;20038;-77
2022/10/01 11:01:39;;;;;;;0.10;0.10;;;16.60;99.90;;;;;;5030043;28;20107;-77
2022/10/01 11:04:38;;;;;;;15.30;1.00;;;17.00;99.90;;;;;;5022692;28;20060;-77
2022/10/01 11:07:04;;;;;;;0.10;0.10;;;17.10;99.90;;;;;;5036782;28;20366;-77
2022/10/01 11:10:04;;;;;;;0.55;0.55;;;17.20;99.90;;;;;;5029598;28;20375;-78
2022/10/01 11:12:58;;;;;;;1.65;1.10;;;17.40;99.90;;;;;;5028387;28;20049;-78
2022/10/01 11:15:31;;;;;;;;;;;17.10;99.90;;;;;;5029337;28;20187;-77
2022/10/01 11:18:13;;;;;;;0.08;0.08;;;16.70;99.90;;;;;;5049410;28;20284;-77
2022/10/01 11:21:14;;;;;;;0.10;0.10;;;16.50;99.90;;;;;;5018537;28;20037;-77
2022/10/01 11:24:00;;;;;;;0.10;0.10;;;16.40;99.90;;;;;;5047719;28;20060;-77
2022/10/01 11:26:44;;;;;;;0.10;0.10;;;16.80;99.90;;;;;;5049760;28;20047;-77
2022/10/01 11:29:45;;;;;;;0.10;0.10;;;16.60;99.90;;;;;;5041633;28;20494;-77
2022/10/01 11:32:34;;;;;;;0.28;0.28;;;16.30;99.90;;;;;;5024648;28;20065;-75
2022/10/01 11:35:33;;;;;;;0.03;0.03;;;16.20;99.90;;;;;;5021163;28;20124;-76
2022/10/01 11:38:25;;;;;;;0.00;0.00;;;16.20;99.90;;;;;;5019851;28;20041;-77
2022/10/01 11:41:07;;;;;;;11.45;0.80;;;16.30;99.90;;;;;;5033931;28;20048;-76
2022/10/01 11:43:41;;;;;;;1.55;1.08;;;16.80;99.90;;;;;;5031429;28;20045;-77
2022/10/01 11:46:12;;;;;;;0.45;0.45;;;16.60;99.90;;;;;;5049908;28;20124;-76
2022/10/01 11:48:50;;;;;;;0.10;0.10;;;16.50;99.90;;;;;;5018479;28;20169;-76
2022/10/01 11:51:21;;;;;;;0.00;0.00;;;16.50;99.90;;;;;;5022984;28;20060;-76
2022/10/01 11:53:53;;;;;;;0.08;0.08;;;16.70;99.90;;;;;;5021967;28;20061;-76
2022/10/01 11:59:32;;;;;;;0.10;0.10;;;17.40;99.90;;;;;;5030973;28;20049;-76
2022/10/01 12:02:14;;;;;;;3.33;0.85;;;17.60;99.90;;;;;;5031999;28;20053;-76
2022/10/01 12:05:15;;;;;;;0.50;0.50;;;18.10;99.90;;;;;;5039476;28;20084;-76
2022/10/01 12:07:56;;;;;;;1.20;1.20;;;18.10;99.90;;;;;;5020508;28;20397;-76
2022/10/01 12:10:43;;;;;;;0.10;0.10;;;18.10;99.90;;;;;;5032280;28;20045;-75
2022/10/01 12:13:31;;;;;;;0.20;0.20;;;18.10;99.90;;;;;;5035148;28;20485;-76
2022/10/01 12:16:13;;;;;;;0.00;0.00;;;18.30;99.90;;;;;;5024186;28;20107;-77
2022/10/01 12:19:12;;;;;;;0.30;0.30;;;18.30;99.90;;;;;;5029646;28;20175;-77
2022/10/01 12:21:42;;;;;;;0.00;0.00;;;17.80;99.90;;;;;;5024227;28;20053;-77
2022/10/01 12:24:13;;;;;;;1.08;0.95;;;17.40;99.90;;;;;;5030539;28;20049;-75
2022/10/01 12:26:44;;;;;;;0.10;0.10;;;17.00;99.90;;;;;;5033179;28;20038;-76
2022/10/01 12:29:16;;;;;;;0.73;0.73;;;16.80;99.90;;;;;;5029256;28;20080;-75
2022/10/01 12:31:56;;;;;;;0.10;0.10;;;16.50;99.90;;;;;;5040960;28;20079;-80
2022/10/01 12:35:06;;;;;;;0.10;0.10;;;16.30;99.90;;;;;;5029548;28;20048;-76
2022/10/01 12:37:38;;;;;;;0.45;0.45;;;16.40;99.90;;;;;;5032862;28;20072;-76
2022/10/01 12:40:29;;;;;;;1.45;1.00;;;16.60;99.90;;;;;;5032184;28;20052;-76
2022/10/01 12:43:20;;;;;;;1.95;0.85;;;17.20;99.90;;;;;;5028999;28;20436;-77
2022/10/01 12:46:11;;;;;;;0.03;0.03;;;17.40;99.90;;;;;;5040621;28;20056;-77
2022/10/01 12:49:00;;;;;;;0.10;0.10;;;17.00;99.90;;;;;;5048936;28;20064;-76
2022/10/01 12:51:51;;;;;;;0.10;0.10;;;16.90;99.90;;;;;;5050090;28;20492;-77
2022/10/01 12:54:29;;;;;;;0.17;0.17;;;18.00;99.90;;;;;;5048465;28;20044;-78
2022/10/01 12:57:31;;;;;;;0.10;0.10;;;18.50;99.90;;;;;;5048868;28;20682;-79
2022/10/01 13:00:25;;;;;;;0.10;0.10;;;18.80;99.90;;;;;;5025868;28;20573;-78
2022/10/01 13:03:13;;;;;;;0.00;0.00;;;18.70;99.90;;;;;;5019021;28;20053;-79
2022/10/01 13:06:00;;;;;;;3.40;1.65;;;18.80;99.90;;;;;;5017353;28;20046;-83
2022/10/01 13:08:26;;;;;;;0.20;0.20;;;19.30;99.90;;;;;;5021189;28;20125;-75
2022/10/01 13:11:06;;;;;;;0.15;0.15;;;18.30;99.90;;;;;;5036786;28;20584;-76
2022/10/01 13:13:32;;;;;;;0.00;0.00;;;18.30;99.90;;;;;;5024872;28;20179;-76
2022/10/01 13:16:21;;;;;;;0.00;0.00;;;18.70;99.90;;;;;;5028250;28;20061;-75
2022/10/01 13:19:04;;;;;;;1.23;0.90;;;19.10;99.90;;;;;;5026333;28;20056;-76